Time;durP1;ratioP1;P1;durP2;ratioP2;P2;SDS_P1;SDS_P2;PMS_P1;PMS_P2;Temp;Humidity;BMP_temperature;BMP_pressure;BME280_temperature;BME280_humidity;BME280_pressure;Samples;Min_cycle;Max_cycle;Signal;HPM_P1;HPM_P2
2021/12/21 00:00:59;;;;;;;36.53;18.67;;;-2.10;99.90;;;;;;5017929;28;20037;-66
2021/12/21 00:03:26;;;;;;;33.33;19.33;;;-2.20;99.90;;;;;;5014717;28;20045;-66
2021/12/21 00:05:54;;;;;;;41.15;21.65;;;-2.20;99.90;;;;;;5011564;28;20046;-66
2021/12/21 00:08:22;;;;;;;36.78;19.90;;;-2.20;99.90;;;;;;5053928;28;20049;-66
2021/12/21 00:11:10;;;;;;;32.25;18.17;;;-2.20;99.90;;;;;;5012180;28;20500;-66
2021/12/21 00:13:52;;;;;;;25.15;16.33;;;-2.20;99.90;;;;;;5011282;28;20057;-66
2021/12/21 00:16:47;;;;;;;30.50;17.30;;;-2.20;99.90;;;;;;5018005;28;20045;-66
2021/12/21 00:22:07;;;;;;;32.55;16.85;;;-2.30;99.90;;;;;;5011346;28;20504;-66
2021/12/21 00:24:45;;;;;;;28.92;16.88;;;-2.30;99.90;;;;;;5012024;28;20042;-67
2021/12/21 00:27:14;;;;;;;27.25;16.17;;;-2.30;99.90;;;;;;5010672;28;20053;-67
2021/12/21 00:29:42;;;;;;;31.85;16.45;;;-2.40;99.90;;;;;;5022677;28;20172;-67
2021/12/21 00:32:10;;;;;;;30.35;16.48;;;-2.40;99.90;;;;;;5025906;28;20522;-66
2021/12/21 00:34:39;;;;;;;31.88;15.73;;;-2.40;99.90;;;;;;5029793;28;20042;-66
2021/12/21 00:37:07;;;;;;;29.75;14.27;;;-2.40;99.90;;;;;;5029355;28;20051;-66
2021/12/21 00:39:34;;;;;;;27.55;13.88;;;-2.40;99.90;;;;;;5022900;28;20085;-67
2021/12/21 00:42:02;;;;;;;24.73;13.18;;;-2.40;99.90;;;;;;5030961;28;20042;-66
2021/12/21 00:44:30;;;;;;;22.30;12.70;;;-2.50;99.90;;;;;;5030429;28;20034;-66
2021/12/21 00:46:57;;;;;;;23.05;11.73;;;-2.50;99.90;;;;;;5030722;28;20815;-66
2021/12/21 00:49:26;;;;;;;21.55;11.73;;;-2.50;99.90;;;;;;5030493;28;20400;-66
2021/12/21 00:51:53;;;;;;;23.73;11.48;;;-2.50;99.90;;;;;;5030382;28;20052;-66
2021/12/21 00:54:21;;;;;;;28.42;11.70;;;-2.50;99.90;;;;;;5030143;28;20410;-66
2021/12/21 00:56:48;;;;;;;21.50;11.02;;;-2.60;99.90;;;;;;5028892;28;20516;-67
2021/12/21 00:59:15;;;;;;;24.30;11.13;;;-2.60;99.90;;;;;;5033986;28;20052;-66
2021/12/21 01:01:43;;;;;;;19.73;10.50;;;-2.60;99.90;;;;;;5018993;28;20054;-66
2021/12/21 01:04:20;;;;;;;18.42;10.90;;;-2.60;99.90;;;;;;5024316;28;20041;-66
2021/12/21 01:07:19;;;;;;;19.63;9.48;;;-2.60;99.90;;;;;;5022024;28;20447;-67
2021/12/21 01:10:09;;;;;;;26.27;10.43;;;-2.60;99.90;;;;;;5023794;28;20069;-66
2021/12/21 01:18:02;;;;;;;18.25;9.27;;;-2.70;99.90;;;;;;5026291;28;20512;-66
2021/12/21 01:26:09;;;;;;;19.70;10.18;;;-2.80;99.90;;;;;;5010550;28;20056;-66
2021/12/21 01:39:30;;;;;;;20.00;10.80;;;-2.80;99.90;;;;;;5029249;28;20049;-66
2021/12/21 01:42:05;;;;;;;17.55;9.77;;;-2.80;99.90;;;;;;5029930;28;20049;-66
2021/12/21 01:50:01;;;;;;;20.25;10.32;;;-2.80;99.90;;;;;;5027017;28;20064;-66
2021/12/21 01:52:29;;;;;;;18.35;10.27;;;-2.80;99.90;;;;;;5029673;28;20047;-67
2021/12/21 01:54:56;;;;;;;21.08;10.40;;;-2.90;99.90;;;;;;5029580;28;20045;-65
2021/12/21 01:57:23;;;;;;;16.48;9.10;;;-2.90;99.90;;;;;;5016250;28;20071;-66
2021/12/21 01:59:51;;;;;;;20.05;9.73;;;-2.90;99.90;;;;;;5019733;28;20301;-66
2021/12/21 02:02:19;;;;;;;21.63;9.90;;;-2.90;99.90;;;;;;5011991;28;20481;-66
2021/12/21 02:04:47;;;;;;;21.80;10.30;;;-2.90;99.90;;;;;;5020915;28;20045;-66
2021/12/21 02:07:15;;;;;;;18.05;9.20;;;-2.90;99.90;;;;;;5024779;28;20496;-66
2021/12/21 02:09:42;;;;;;;18.75;9.57;;;-2.90;99.90;;;;;;5020845;28;20129;-66
2021/12/21 02:12:18;;;;;;;19.15;9.75;;;-2.90;99.90;;;;;;5009635;28;20049;-66
2021/12/21 02:14:55;;;;;;;18.00;9.27;;;-2.90;99.90;;;;;;5016484;28;20523;-66
2021/12/21 02:20:24;;;;;;;18.15;10.30;;;-3.00;99.90;;;;;;5009844;28;20047;-66
2021/12/21 02:23:04;;;;;;;18.85;9.50;;;-3.00;99.90;;;;;;5013105;28;20047;-66
2021/12/21 02:25:50;;;;;;;17.58;9.40;;;-3.00;99.90;;;;;;5017934;28;20042;-66
2021/12/21 02:30:51;;;;;;;18.70;9.20;;;-3.00;99.90;;;;;;5012783;28;20041;-66
2021/12/21 02:33:21;;;;;;;16.88;9.65;;;-3.10;99.90;;;;;;5023037;28;20044;-66
2021/12/21 02:35:49;;;;;;;18.73;9.70;;;-3.10;99.90;;;;;;5029178;28;20099;-66
2021/12/21 02:38:17;;;;;;;17.58;9.20;;;-3.10;99.90;;;;;;5029092;28;20510;-66
2021/12/21 02:40:45;;;;;;;17.98;9.40;;;-3.10;99.90;;;;;;5028805;28;20404;-66
2021/12/21 02:43:13;;;;;;;16.27;8.60;;;-3.10;99.90;;;;;;5028986;28;20043;-67
2021/12/21 02:45:42;;;;;;;21.45;9.10;;;-3.20;99.90;;;;;;5028703;28;20041;-66
2021/12/21 02:48:09;;;;;;;16.33;8.25;;;-3.20;99.90;;;;;;5028936;28;20041;-67
2021/12/21 02:50:38;;;;;;;15.82;8.05;;;-3.20;99.90;;;;;;5031633;28;20073;-67
2021/12/21 02:53:07;;;;;;;19.25;9.10;;;-3.20;99.90;;;;;;5032119;28;20534;-67
2021/12/21 02:55:35;;;;;;;22.40;7.90;;;-3.20;99.90;;;;;;5032593;28;20049;-67
2021/12/21 02:58:04;;;;;;;18.17;7.90;;;-3.20;99.90;;;;;;5036435;28;20491;-67
2021/12/21 03:00:32;;;;;;;15.68;8.00;;;-3.20;99.90;;;;;;5016835;28;20048;-67
2021/12/21 03:03:06;;;;;;;17.25;9.15;;;-3.20;99.90;;;;;;5020945;28;20080;-65
2021/12/21 03:05:36;;;;;;;24.52;9.27;;;-3.20;99.90;;;;;;5016923;28;20708;-66
2021/12/21 03:08:23;;;;;;;21.60;9.73;;;-3.20;99.90;;;;;;5020803;28;20049;-66
2021/12/21 03:14:03;;;;;;;23.55;9.45;;;-3.30;99.90;;;;;;5021113;28;20049;-66
2021/12/21 03:16:33;;;;;;;18.92;8.02;;;-3.30;99.90;;;;;;5044642;28;20108;-66
2021/12/21 03:19:02;;;;;;;18.50;9.27;;;-3.30;99.90;;;;;;5026335;28;20396;-66
2021/12/21 03:21:29;;;;;;;19.73;8.57;;;-3.30;99.90;;;;;;5024462;28;20046;-66
2021/12/21 03:23:57;;;;;;;19.67;8.75;;;-3.30;99.90;;;;;;5027518;28;20038;-66
2021/12/21 03:26:24;;;;;;;17.17;9.20;;;-3.40;99.90;;;;;;5026191;28;20042;-66
2021/12/21 03:28:53;;;;;;;16.50;8.27;;;-3.40;99.90;;;;;;5012309;28;20065;-66
2021/12/21 03:31:20;;;;;;;16.38;7.85;;;-3.40;99.90;;;;;;5026217;28;20064;-66
2021/12/21 03:33:49;;;;;;;17.25;7.97;;;-3.40;99.90;;;;;;5026462;28;20045;-66
2021/12/21 03:36:17;;;;;;;16.30;7.97;;;-3.40;99.90;;;;;;5031703;28;20060;-66
2021/12/21 03:38:58;;;;;;;17.45;8.32;;;-3.50;99.90;;;;;;5031787;28;20781;-67
2021/12/21 03:41:26;;;;;;;17.42;7.68;;;-3.40;99.90;;;;;;5031681;28;20040;-66
2021/12/21 03:43:55;;;;;;;16.08;8.00;;;-3.50;99.90;;;;;;5030515;28;20057;-67
2021/12/21 03:46:24;;;;;;;15.60;7.35;;;-3.50;99.90;;;;;;5027047;28;20079;-66
2021/12/21 03:48:51;;;;;;;19.13;9.02;;;-3.50;99.90;;;;;;5031859;28;20050;-66
2021/12/21 03:51:20;;;;;;;16.23;7.85;;;-3.50;99.90;;;;;;5030470;28;20037;-66
2021/12/21 03:53:49;;;;;;;12.73;7.38;;;-3.50;99.90;;;;;;5023164;28;20053;-66
2021/12/21 03:58:46;;;;;;;13.45;6.70;;;-3.50;99.90;;;;;;5032247;28;20431;-67
2021/12/21 04:01:14;;;;;;;15.13;8.45;;;-3.60;99.90;;;;;;5017815;28;20041;-66
2021/12/21 04:03:41;;;;;;;14.02;6.82;;;-3.60;99.90;;;;;;5030278;28;20041;-67
2021/12/21 04:06:09;;;;;;;15.60;6.43;;;-3.60;99.90;;;;;;5021002;28;20041;-66
2021/12/21 04:08:36;;;;;;;18.42;6.63;;;-3.60;99.90;;;;;;5031056;28;20049;-66
2021/12/21 04:11:04;;;;;;;15.27;6.93;;;-3.60;99.90;;;;;;5029947;28;20065;-67
2021/12/21 04:13:31;;;;;;;14.02;6.65;;;-3.60;99.90;;;;;;5031243;28;20079;-66
2021/12/21 04:16:01;;;;;;;13.18;6.25;;;-3.60;99.90;;;;;;5030070;28;20468;-66
2021/12/21 04:18:28;;;;;;;15.02;6.55;;;-3.60;99.90;;;;;;5031499;28;20524;-67
2021/12/21 04:20:56;;;;;;;11.13;5.85;;;-3.60;99.90;;;;;;5028642;28;20385;-67
2021/12/21 04:23:23;;;;;;;10.60;6.20;;;-3.60;99.90;;;;;;5029673;28;20471;-67
2021/12/21 04:25:50;;;;;;;16.08;6.43;;;-3.60;99.90;;;;;;5030671;28;20049;-67
2021/12/21 04:28:17;;;;;;;10.68;6.47;;;-3.60;99.90;;;;;;5029219;28;20039;-66
2021/12/21 04:30:45;;;;;;;15.23;6.63;;;-3.60;99.90;;;;;;5031230;28;20045;-66
2021/12/21 04:33:12;;;;;;;12.07;6.00;;;-3.60;99.90;;;;;;5029761;28;20045;-66
2021/12/21 04:35:39;;;;;;;14.20;7.07;;;-3.70;99.90;;;;;;5029685;28;20049;-66
2021/12/21 04:38:25;;;;;;;13.27;6.97;;;-3.70;99.90;;;;;;5030632;28;20485;-66
2021/12/21 04:41:03;;;;;;;11.98;7.03;;;-3.70;99.90;;;;;;5023255;28;20045;-66
2021/12/21 04:43:30;;;;;;;15.05;7.40;;;-3.70;99.90;;;;;;5030417;28;20064;-66
2021/12/21 04:45:57;;;;;;;17.20;8.23;;;-3.70;99.90;;;;;;5030588;28;20045;-66
2021/12/21 04:48:25;;;;;;;13.38;7.47;;;-3.70;99.90;;;;;;5030323;28;20048;-66
2021/12/21 04:50:52;;;;;;;18.33;7.72;;;-3.70;99.90;;;;;;5030552;28;20049;-66
2021/12/21 04:53:20;;;;;;;22.80;8.32;;;-3.70;99.90;;;;;;5029065;28;20045;-66
2021/12/21 04:55:48;;;;;;;14.20;7.28;;;-3.70;99.90;;;;;;5030550;28;20042;-67
2021/12/21 04:58:15;;;;;;;16.90;8.20;;;-3.80;99.90;;;;;;5036334;28;20144;-65
2021/12/21 05:00:43;;;;;;;18.77;7.47;;;-3.70;99.90;;;;;;5027417;28;20041;-66
2021/12/21 05:03:10;;;;;;;12.35;7.15;;;-3.80;99.90;;;;;;5029794;28;20049;-67
2021/12/21 05:05:38;;;;;;;13.88;7.82;;;-3.80;99.90;;;;;;5029848;28;20063;-67
2021/12/21 05:08:08;;;;;;;14.65;7.18;;;-3.80;99.90;;;;;;5029552;28;20519;-66
2021/12/21 05:10:46;;;;;;;13.75;6.85;;;-3.80;99.90;;;;;;5028151;28;20057;-67
2021/12/21 05:13:14;;;;;;;15.57;7.22;;;-3.90;99.90;;;;;;5028556;28;20045;-66
2021/12/21 05:15:42;;;;;;;14.32;7.47;;;-3.90;99.90;;;;;;5028970;28;20480;-66
2021/12/21 05:18:10;;;;;;;18.05;7.68;;;-3.90;99.90;;;;;;5029393;28;20515;-67
2021/12/21 05:20:38;;;;;;;21.45;8.10;;;-3.90;99.90;;;;;;5028187;28;20072;-67
2021/12/21 05:23:06;;;;;;;15.35;7.63;;;-3.90;99.90;;;;;;5029080;28;20037;-67
2021/12/21 05:25:34;;;;;;;23.80;8.38;;;-3.90;99.90;;;;;;5029792;28;20045;-66
2021/12/21 05:28:04;;;;;;;17.70;8.00;;;-3.90;99.90;;;;;;5015413;28;20107;-67
2021/12/21 05:30:34;;;;;;;19.60;8.10;;;-3.90;99.90;;;;;;5030098;28;20053;-67
2021/12/21 05:33:02;;;;;;;22.35;9.10;;;-4.00;99.90;;;;;;5028767;28;20500;-67
2021/12/21 05:35:31;;;;;;;19.60;10.18;;;-4.00;99.90;;;;;;5017332;28;20113;-67
2021/12/21 05:38:02;;;;;;;23.40;10.50;;;-4.00;99.90;;;;;;5029471;28;20041;-67
2021/12/21 05:40:35;;;;;;;18.08;8.88;;;-4.00;99.90;;;;;;5028908;28;20052;-67
2021/12/21 05:43:04;;;;;;;19.15;8.80;;;-4.00;99.90;;;;;;5029362;28;20080;-67
2021/12/21 05:45:31;;;;;;;19.08;9.02;;;-4.00;99.90;;;;;;5028206;28;20030;-67
2021/12/21 05:47:59;;;;;;;20.88;9.13;;;-4.10;99.90;;;;;;5026907;28;20076;-66
2021/12/21 05:50:27;;;;;;;22.75;9.30;;;-4.10;99.90;;;;;;5027977;28;20057;-66
2021/12/21 05:52:54;;;;;;;25.52;10.02;;;-4.00;99.90;;;;;;5023323;28;20270;-67
2021/12/21 05:55:22;;;;;;;24.88;10.70;;;-4.10;99.90;;;;;;5027780;28;20044;-66
2021/12/21 05:57:50;;;;;;;25.80;10.15;;;-4.10;99.90;;;;;;5030069;28;20452;-66
2021/12/21 06:00:21;;;;;;;22.42;10.23;;;-4.10;99.90;;;;;;5028829;28;20045;-66
2021/12/21 06:02:48;;;;;;;22.10;10.10;;;-4.10;99.90;;;;;;5029581;28;20520;-66
2021/12/21 06:05:16;;;;;;;21.75;9.18;;;-4.10;99.90;;;;;;5029286;28;20069;-66
2021/12/21 06:07:45;;;;;;;24.67;11.57;;;-4.10;99.90;;;;;;5029102;28;20045;-66
2021/12/21 06:10:18;;;;;;;23.83;10.73;;;-4.10;99.90;;;;;;5029381;28;20045;-66
2021/12/21 06:15:37;;;;;;;23.13;10.13;;;-4.20;99.90;;;;;;5017314;28;20053;-66
2021/12/21 06:24:34;;;;;;;28.42;13.60;;;-4.20;99.90;;;;;;5029799;28;20053;-65
2021/12/21 06:26:34;;;;;;;29.10;14.27;;;-4.20;99.90;;;;;;5026825;28;20508;-65
2021/12/21 06:29:02;;;;;;;26.40;12.85;;;-4.30;99.90;;;;;;5025316;28;20712;-66
2021/12/21 06:31:29;;;;;;;30.58;13.80;;;-4.20;99.90;;;;;;5033100;28;20041;-65
2021/12/21 06:33:57;;;;;;;33.00;13.63;;;-4.30;99.90;;;;;;5033294;28;20077;-66
2021/12/21 06:36:24;;;;;;;23.48;12.02;;;-4.30;99.90;;;;;;5032989;28;20080;-66
2021/12/21 06:38:53;;;;;;;22.25;11.10;;;-4.30;99.90;;;;;;5033020;28;20128;-66
2021/12/21 06:41:21;;;;;;;25.17;12.05;;;-4.30;99.90;;;;;;5032981;28;20057;-66
2021/12/21 06:43:48;;;;;;;22.60;11.77;;;-4.40;99.90;;;;;;5033081;28;20049;-65
2021/12/21 06:46:44;;;;;;;27.30;13.52;;;-4.40;99.90;;;;;;5031072;28;20034;-66
2021/12/21 06:51:54;;;;;;;26.10;13.77;;;-4.40;99.90;;;;;;5031029;28;20519;-66
2021/12/21 06:54:22;;;;;;;27.17;13.05;;;-4.40;99.90;;;;;;5032987;28;20113;-68
2021/12/21 06:56:49;;;;;;;28.17;12.95;;;-4.40;99.90;;;;;;5029420;28;20053;-67
2021/12/21 06:59:17;;;;;;;24.95;12.95;;;-4.40;99.90;;;;;;5033289;28;20567;-67
2021/12/21 07:01:44;;;;;;;27.88;12.63;;;-4.40;99.90;;;;;;5028980;28;20127;-65
2021/12/21 07:04:13;;;;;;;25.45;13.15;;;-4.40;99.90;;;;;;5032089;28;20049;-65
2021/12/21 07:06:41;;;;;;;34.33;15.43;;;-4.40;99.90;;;;;;5031805;28;20514;-66
2021/12/21 07:11:53;;;;;;;27.63;13.50;;;-4.40;99.90;;;;;;5030982;28;20447;-65
2021/12/21 07:19:52;;;;;;;28.60;13.55;;;-4.40;99.90;;;;;;5027207;28;20056;-66
2021/12/21 07:22:23;;;;;;;28.60;14.00;;;-4.40;99.90;;;;;;5031787;28;20458;-66
2021/12/21 07:24:51;;;;;;;29.75;14.40;;;-4.30;99.90;;;;;;5024806;28;20527;-66
2021/12/21 07:27:18;;;;;;;27.17;14.68;;;-4.30;99.90;;;;;;5027607;28;20048;-66
2021/12/21 07:29:45;;;;;;;31.15;15.10;;;-4.30;99.90;;;;;;5028084;28;20057;-66
2021/12/21 07:32:13;;;;;;;23.92;13.13;;;-4.20;99.90;;;;;;5031591;28;20060;-67
2021/12/21 07:34:42;;;;;;;30.65;13.18;;;-4.20;99.90;;;;;;5029029;28;20540;-66
2021/12/21 07:37:13;;;;;;;26.27;13.15;;;-4.10;99.90;;;;;;5030526;28;20054;-66
2021/12/21 07:39:41;;;;;;;25.80;11.73;;;-4.00;99.90;;;;;;5031636;28;20058;-66
2021/12/21 07:42:20;;;;;;;28.80;12.75;;;-3.90;99.90;;;;;;5031361;28;20061;-66
2021/12/21 07:44:49;;;;;;;25.08;11.05;;;-3.90;99.90;;;;;;5026880;28;20518;-66
2021/12/21 07:47:18;;;;;;;22.95;11.35;;;-3.80;99.90;;;;;;5031095;28;20539;-66
2021/12/21 07:49:46;;;;;;;26.77;12.15;;;-3.80;99.90;;;;;;5030526;28;20050;-66
2021/12/21 07:52:15;;;;;;;23.40;10.48;;;-3.70;99.90;;;;;;5030173;28;20041;-66
2021/12/21 07:54:43;;;;;;;19.52;9.68;;;-3.60;99.90;;;;;;5029315;28;20053;-66
2021/12/21 07:57:12;;;;;;;26.17;9.52;;;-3.50;99.90;;;;;;5057878;28;20049;-66
2021/12/21 07:59:40;;;;;;;20.98;9.63;;;-3.40;99.90;;;;;;5029326;28;20072;-66
2021/12/21 08:02:12;;;;;;;21.05;9.55;;;-3.30;99.90;;;;;;5031245;28;20789;-66
2021/12/21 08:04:42;;;;;;;20.23;8.65;;;-3.30;99.90;;;;;;5033292;28;20044;-66
2021/12/21 08:07:15;;;;;;;16.03;8.17;;;-3.10;99.90;;;;;;5031018;28;20552;-66
2021/12/21 08:09:47;;;;;;;14.23;7.60;;;-3.00;99.90;;;;;;5030968;28;20049;-66
2021/12/21 08:12:17;;;;;;;14.15;6.45;;;-3.00;99.90;;;;;;5030161;28;20080;-66
2021/12/21 08:14:48;;;;;;;12.38;7.00;;;-2.90;99.90;;;;;;5031036;28;20069;-66
2021/12/21 08:17:16;;;;;;;20.50;10.15;;;-2.80;99.90;;;;;;5024664;28;20111;-66
2021/12/21 08:19:45;;;;;;;17.98;10.55;;;-2.80;99.90;;;;;;5031193;28;20424;-67
2021/12/21 08:22:13;;;;;;;21.58;11.85;;;-2.80;99.90;;;;;;5028979;28;20033;-67
2021/12/21 08:24:43;;;;;;;20.83;10.13;;;-2.80;99.90;;;;;;5029315;28;20128;-66
2021/12/21 08:27:11;;;;;;;19.50;10.23;;;-2.80;99.90;;;;;;5028924;28;20488;-67
2021/12/21 08:29:38;;;;;;;20.10;10.40;;;-2.80;99.90;;;;;;5030654;28;20049;-67
2021/12/21 08:32:07;;;;;;;20.50;11.32;;;-2.80;99.90;;;;;;5029681;28;20084;-67
2021/12/21 08:34:36;;;;;;;31.63;11.68;;;-2.80;99.90;;;;;;5031079;28;20045;-67
2021/12/21 08:37:05;;;;;;;29.30;12.20;;;-2.80;99.90;;;;;;5028990;28;20060;-67
2021/12/21 08:39:38;;;;;;;18.85;9.30;;;-2.70;99.90;;;;;;5030248;28;20062;-67
2021/12/21 08:42:08;;;;;;;16.42;8.32;;;-2.70;99.90;;;;;;5029657;28;20041;-65
2021/12/21 08:44:36;;;;;;;19.67;8.77;;;-2.60;99.90;;;;;;5029952;28;20597;-66
2021/12/21 08:47:04;;;;;;;15.85;7.50;;;-2.60;99.90;;;;;;5029582;28;20037;-65
2021/12/21 08:49:32;;;;;;;16.75;7.90;;;-2.50;99.90;;;;;;5061829;28;20049;-66
2021/12/21 08:51:59;;;;;;;18.80;7.97;;;-2.40;99.90;;;;;;5030071;28;20072;-66
2021/12/21 08:54:27;;;;;;;14.60;7.00;;;-2.30;99.90;;;;;;5022349;28;20045;-66
2021/12/21 08:56:55;;;;;;;13.75;6.97;;;-2.20;99.90;;;;;;5028936;28;20049;-65
2021/12/21 08:59:22;;;;;;;23.05;10.50;;;-2.10;99.90;;;;;;5045194;28;20102;-66
2021/12/21 09:01:51;;;;;;;25.02;11.43;;;-2.00;99.90;;;;;;5033684;28;20041;-66
2021/12/21 09:04:21;;;;;;;24.75;9.57;;;-1.90;99.90;;;;;;5030047;28;20124;-66
2021/12/21 09:06:49;;;;;;;14.68;7.15;;;-1.80;99.90;;;;;;5029825;28;20049;-66
2021/12/21 09:09:16;;;;;;;17.33;8.57;;;-1.70;99.90;;;;;;5030035;28;20050;-66
2021/12/21 09:11:45;;;;;;;15.70;7.60;;;-1.60;99.90;;;;;;5029897;28;20053;-65
2021/12/21 09:14:13;;;;;;;12.23;6.82;;;-1.50;99.90;;;;;;5029861;28;20045;-65
2021/12/21 09:16:40;;;;;;;15.27;8.00;;;-1.40;99.90;;;;;;5030190;28;20496;-66
2021/12/21 09:19:08;;;;;;;19.25;9.32;;;-1.30;99.90;;;;;;5028237;28;20049;-65
2021/12/21 09:21:35;;;;;;;13.27;7.28;;;-1.10;99.90;;;;;;5029741;28;20079;-66
2021/12/21 09:24:03;;;;;;;14.65;7.38;;;-1.00;99.90;;;;;;5041661;28;20045;-65
2021/12/21 09:26:31;;;;;;;25.20;8.15;;;-0.90;99.90;;;;;;5029510;28;20496;-66
2021/12/21 09:28:59;;;;;;;11.85;6.78;;;-0.80;99.90;;;;;;5029348;28;20099;-66
2021/12/21 09:31:26;;;;;;;13.88;6.97;;;-0.70;99.90;;;;;;5029711;28;20492;-66
2021/12/21 09:33:53;;;;;;;13.68;7.18;;;-0.60;99.90;;;;;;5027622;28;20528;-67
2021/12/21 09:36:22;;;;;;;13.48;6.40;;;-0.50;99.90;;;;;;5028909;28;20041;-66
2021/12/21 09:38:49;;;;;;;11.75;6.38;;;-0.30;99.90;;;;;;5029247;28;20045;-66
2021/12/21 09:41:18;;;;;;;10.63;6.78;;;-0.20;99.90;;;;;;5026925;28;20037;-66
2021/12/21 09:43:45;;;;;;;14.65;6.50;;;-0.10;99.90;;;;;;5017315;28;20056;-67
2021/12/21 09:46:13;;;;;;;14.70;6.30;;;0.00;99.90;;;;;;5028167;28;20123;-65
2021/12/21 09:48:41;;;;;;;14.38;6.88;;;0.10;99.90;;;;;;5028898;28;20041;-66
2021/12/21 09:51:09;;;;;;;15.82;6.75;;;0.20;99.90;;;;;;5024590;28;20125;-66
2021/12/21 09:53:37;;;;;;;14.02;6.50;;;0.40;99.90;;;;;;5028519;28;20415;-66
2021/12/21 09:56:06;;;;;;;9.80;6.50;;;0.40;99.90;;;;;;5028329;28;20052;-66
2021/12/21 09:58:34;;;;;;;18.25;9.07;;;0.50;99.90;;;;;;5031602;28;20052;-66
2021/12/21 10:01:03;;;;;;;18.08;8.52;;;0.60;99.90;;;;;;5028307;28;20048;-67
2021/12/21 10:03:31;;;;;;;15.88;7.97;;;0.70;99.90;;;;;;5029328;28;20538;-67
2021/12/21 10:06:17;;;;;;;13.63;8.15;;;0.90;99.90;;;;;;5029090;28;20048;-67
2021/12/21 10:08:44;;;;;;;16.63;8.50;;;1.00;99.90;;;;;;5028933;28;20053;-66
2021/12/21 10:11:23;;;;;;;14.48;6.72;;;1.20;99.90;;;;;;5028082;28;20038;-66
2021/12/21 10:13:50;;;;;;;14.20;8.45;;;1.30;99.90;;;;;;5028387;28;20045;-66
2021/12/21 10:16:21;;;;;;;23.85;8.55;;;1.20;99.90;;;;;;5029294;28;20045;-66
2021/12/21 10:18:49;;;;;;;13.65;7.97;;;1.20;99.90;;;;;;5029382;28;20514;-66
2021/12/21 10:21:17;;;;;;;17.90;7.95;;;1.30;99.90;;;;;;5026515;28;20091;-66
2021/12/21 10:23:48;;;;;;;14.27;8.18;;;1.40;99.90;;;;;;5028092;28;20045;-66
2021/12/21 10:26:21;;;;;;;14.35;8.05;;;1.50;99.90;;;;;;5028406;28;20037;-68
2021/12/21 10:28:52;;;;;;;20.27;8.15;;;1.60;99.90;;;;;;5037161;28;20041;-66
2021/12/21 10:31:36;;;;;;;17.95;8.07;;;1.60;99.90;;;;;;5031297;28;20431;-66
2021/12/21 10:34:09;;;;;;;21.00;9.00;;;1.90;99.90;;;;;;5029186;28;20061;-67
2021/12/21 10:36:44;;;;;;;16.33;9.52;;;2.10;99.90;;;;;;5027293;28;20049;-66
2021/12/21 10:39:28;;;;;;;14.85;8.05;;;3.00;99.90;;;;;;5029098;28;20416;-66
2021/12/21 10:42:03;;;;;;;25.65;7.68;;;5.00;99.90;;;;;;5027487;28;20360;-66
2021/12/21 10:44:31;;;;;;;17.25;7.63;;;6.50;99.90;;;;;;5028664;28;20037;-66
2021/12/21 10:46:58;;;;;;;12.18;7.05;;;6.70;99.90;;;;;;5029017;28;20038;-66
2021/12/21 10:49:34;;;;;;;13.32;6.88;;;6.60;99.90;;;;;;5028105;28;20037;-66
2021/12/21 10:52:08;;;;;;;14.50;7.43;;;6.90;99.90;;;;;;5029063;28;20136;-66
2021/12/21 10:54:45;;;;;;;12.85;7.85;;;7.40;99.90;;;;;;5028399;28;20067;-66
2021/12/21 10:57:24;;;;;;;19.25;10.30;;;8.10;99.90;;;;;;5030864;28;20460;-66
2021/12/21 10:59:53;;;;;;;13.50;7.30;;;8.90;99.90;;;;;;5027869;28;20049;-66
2021/12/21 11:02:31;;;;;;;10.63;6.50;;;9.60;99.90;;;;;;5028284;28;20033;-66
2021/12/21 11:05:07;;;;;;;10.57;6.57;;;10.20;99.90;;;;;;5028271;28;20045;-66
2021/12/21 11:10:15;;;;;;;16.30;7.18;;;11.10;99.90;;;;;;5029553;28;20470;-66
2021/12/21 11:13:02;;;;;;;11.95;7.72;;;11.30;99.90;;;;;;5032338;28;20041;-67
2021/12/21 11:15:35;;;;;;;14.02;6.28;;;11.60;99.90;;;;;;5023903;28;20068;-66
2021/12/21 11:18:12;;;;;;;14.32;6.28;;;12.00;99.90;;;;;;5030144;28;20044;-66
2021/12/21 11:20:43;;;;;;;12.00;5.80;;;12.30;99.90;;;;;;5030357;28;20069;-66
2021/12/21 11:23:15;;;;;;;10.30;5.95;;;12.50;99.90;;;;;;5030825;28;20041;-66
2021/12/21 11:25:46;;;;;;;12.55;6.40;;;12.80;99.90;;;;;;5031782;28;20037;-66
2021/12/21 11:28:16;;;;;;;10.38;6.05;;;13.30;99.90;;;;;;5031706;28;20069;-66
2021/12/21 11:30:44;;;;;;;13.70;5.97;;;13.80;99.90;;;;;;5029419;28;20056;-66
2021/12/21 11:33:12;;;;;;;12.38;6.00;;;13.90;99.90;;;;;;5062636;28;20038;-66
2021/12/21 11:38:10;;;;;;;10.68;5.47;;;14.30;99.90;;;;;;5031629;28;20057;-66
2021/12/21 11:40:45;;;;;;;9.13;3.90;;;14.50;99.90;;;;;;5030241;28;20049;-66
2021/12/21 11:43:20;;;;;;;7.38;3.95;;;15.20;99.90;;;;;;5031639;28;20525;-66
2021/12/21 11:45:54;;;;;;;8.25;4.82;;;15.50;99.90;;;;;;5028313;28;20057;-66
2021/12/21 11:48:48;;;;;;;6.13;3.83;;;15.60;99.90;;;;;;5025541;28;20515;-66
2021/12/21 11:51:16;;;;;;;7.97;3.28;;;16.00;99.90;;;;;;5027652;28;20041;-66
2021/12/21 11:53:43;;;;;;;9.48;3.55;;;16.50;99.40;;;;;;5028160;28;21496;-66
2021/12/21 11:56:21;;;;;;;7.68;3.38;;;16.40;98.90;;;;;;5029446;28;20049;-66
2021/12/21 11:58:51;;;;;;;5.90;3.20;;;16.40;97.10;;;;;;5031119;28;20052;-66
2021/12/21 12:01:23;;;;;;;7.57;3.20;;;16.50;97.90;;;;;;5030453;28;20037;-66
2021/12/21 12:03:54;;;;;;;6.28;3.17;;;16.90;97.60;;;;;;5030494;28;20045;-66
2021/12/21 12:06:22;;;;;;;7.47;3.50;;;17.00;96.20;;;;;;5024123;28;20141;-66
2021/12/21 12:09:02;;;;;;;6.22;3.33;;;17.20;95.20;;;;;;5023584;28;20060;-66
2021/12/21 12:11:39;;;;;;;6.88;3.42;;;17.30;94.40;;;;;;5029712;28;20037;-67
2021/12/21 12:14:17;;;;;;;7.20;3.50;;;17.60;93.00;;;;;;5022886;28;20091;-66
2021/12/21 12:16:49;;;;;;;6.47;3.63;;;16.50;93.30;;;;;;5023715;28;20049;-66
2021/12/21 12:19:18;;;;;;;;;;;16.20;93.80;;;;;;5022156;28;20041;-66
2021/12/21 12:22:06;;;;;;;10.48;4.65;;;16.00;94.10;;;;;;5028576;28;19991;-66
2021/12/21 12:24:42;;;;;;;6.75;3.30;;;15.10;95.30;;;;;;5029632;28;20044;-66
2021/12/21 12:27:16;;;;;;;7.00;3.40;;;14.60;94.90;;;;;;5029448;28;20073;-65
2021/12/21 12:29:53;;;;;;;12.10;6.25;;;13.80;95.00;;;;;;5029085;28;20042;-65
2021/12/21 12:33:02;;;;;;;12.93;6.68;;;13.50;96.20;;;;;;5031091;28;20072;-65
2021/12/21 12:35:33;;;;;;;9.25;4.00;;;13.70;96.30;;;;;;5010968;28;20045;-66
2021/12/21 12:38:02;;;;;;;7.35;3.30;;;14.10;95.40;;;;;;5028988;28;20068;-65
2021/12/21 12:40:36;;;;;;;6.25;3.17;;;14.70;95.50;;;;;;5029279;28;20099;-66
2021/12/21 12:43:09;;;;;;;7.07;3.50;;;15.30;94.70;;;;;;5027410;28;20143;-65
2021/12/21 12:45:51;;;;;;;5.93;3.03;;;15.80;92.90;;;;;;5029763;28;20042;-66
2021/12/21 12:48:32;;;;;;;8.75;3.20;;;15.70;93.70;;;;;;5029882;28;20042;-66
2021/12/21 12:51:04;;;;;;;5.25;3.20;;;16.30;93.20;;;;;;5030209;28;20118;-66
2021/12/21 12:53:40;;;;;;;9.00;3.50;;;17.00;91.70;;;;;;5029174;28;20041;-66
2021/12/21 12:56:14;;;;;;;8.50;3.75;;;17.20;91.50;;;;;;5030209;28;20045;-66
2021/12/21 12:59:08;;;;;;;7.10;4.28;;;17.00;90.50;;;;;;5029287;28;20073;-66
2021/12/21 13:01:42;;;;;;;6.45;3.20;;;16.70;90.60;;;;;;5019232;28;20512;-66
2021/12/21 13:04:13;;;;;;;5.85;2.95;;;16.90;90.40;;;;;;5029232;28;20556;-66
2021/12/21 13:06:43;;;;;;;5.72;3.03;;;17.20;90.10;;;;;;5028701;28;20091;-66
2021/12/21 13:09:13;;;;;;;7.10;3.75;;;15.80;90.00;;;;;;5029884;28;20396;-66
2021/12/21 13:11:41;;;;;;;8.07;3.78;;;15.60;90.60;;;;;;5029026;28;20088;-65
2021/12/21 13:14:14;;;;;;;6.38;3.50;;;16.00;90.60;;;;;;5030063;28;20136;-66
2021/12/21 13:16:43;;;;;;;4.47;3.10;;;16.50;88.90;;;;;;5029499;28;20526;-66
2021/12/21 13:19:12;;;;;;;8.35;3.25;;;17.30;88.50;;;;;;5028198;28;20045;-66
2021/12/21 13:21:58;;;;;;;6.28;3.30;;;17.70;85.40;;;;;;5028753;28;20038;-66
2021/12/21 13:24:42;;;;;;;5.65;2.90;;;18.30;85.70;;;;;;5061615;28;20048;-67
2021/12/21 13:27:13;;;;;;;7.82;4.60;;;18.60;84.00;;;;;;5028118;28;20092;-66
2021/12/21 13:29:42;;;;;;;7.30;2.90;;;18.60;82.50;;;;;;5027700;28;20457;-66
2021/12/21 13:32:15;;;;;;;5.15;2.83;;;18.80;81.10;;;;;;5028401;28;20037;-67
2021/12/21 13:34:44;;;;;;;;;;;18.60;83.90;;;;;;5027996;28;20084;-66
2021/12/21 13:37:18;;;;;;;4.72;2.10;;;18.10;81.80;;;;;;5029346;28;19925;-66
2021/12/21 13:39:50;;;;;;;4.32;2.22;;;18.00;80.30;;;;;;5025557;28;20045;-66
2021/12/21 13:42:20;;;;;;;4.15;2.30;;;17.60;80.60;;;;;;5029101;28;20473;-66
2021/12/21 13:44:55;;;;;;;5.63;2.75;;;17.10;81.60;;;;;;5029532;28;20136;-65
2021/12/21 13:47:36;;;;;;;5.35;3.17;;;16.60;83.50;;;;;;5028372;28;20562;-65
2021/12/21 13:50:12;;;;;;;4.45;2.50;;;16.10;84.10;;;;;;5026596;28;20099;-65
2021/12/21 13:52:53;;;;;;;5.13;2.28;;;15.50;86.40;;;;;;5029445;28;20056;-65
2021/12/21 13:55:30;;;;;;;5.10;2.38;;;15.30;86.20;;;;;;5027083;28;20033;-66
2021/12/21 13:58:04;;;;;;;4.40;2.40;;;15.70;85.70;;;;;;5031370;28;20455;-65
2021/12/21 14:00:34;;;;;;;5.07;2.80;;;16.40;83.80;;;;;;5028056;28;20045;-66
2021/12/21 14:03:14;;;;;;;5.55;3.15;;;17.40;82.50;;;;;;5028572;28;20503;-66